sensor_id;sensor_type;location;lat;lon;timestamp;P1;durP1;ratioP1;P2;durP2;ratioP2
40907;SDS011;51055;59.436;24.778;2022-08-21T00:01:52;17.23;;;7.85;;
40907;SDS011;51055;59.436;24.778;2022-08-21T00:04:20;22.20;;;7.55;;
40907;SDS011;51055;59.436;24.778;2022-08-21T00:06:56;17.25;;;6.95;;
40907;SDS011;51055;59.436;24.778;2022-08-21T00:09:24;14.88;;;7.00;;
40907;SDS011;51055;59.436;24.778;2022-08-21T00:11:52;20.20;;;7.68;;
40907;SDS011;51055;59.436;24.778;2022-08-21T00:14:20;17.33;;;7.27;;
40907;SDS011;51055;59.436;24.778;2022-08-21T00:16:47;18.77;;;7.50;;
40907;SDS011;51055;59.436;24.778;2022-08-21T00:19:15;20.70;;;8.13;;
40907;SDS011;51055;59.436;24.778;2022-08-21T00:21:43;15.52;;;7.40;;
40907;SDS011;51055;59.436;24.778;2022-08-21T00:24:11;16.38;;;7.72;;
40907;SDS011;51055;59.436;24.778;2022-08-21T00:26:39;15.95;;;7.15;;
40907;SDS011;51055;59.436;24.778;2022-08-21T00:29:07;15.10;;;7.03;;
40907;SDS011;51055;59.436;24.778;2022-08-21T00:31:35;13.77;;;6.80;;
40907;SDS011;51055;59.436;24.778;2022-08-21T00:34:03;18.17;;;7.72;;
40907;SDS011;51055;59.436;24.778;2022-08-21T00:36:31;17.50;;;7.80;;
40907;SDS011;51055;59.436;24.778;2022-08-21T00:38:59;17.92;;;7.38;;
40907;SDS011;51055;59.436;24.778;2022-08-21T00:41:27;17.10;;;7.65;;
40907;SDS011;51055;59.436;24.778;2022-08-21T00:44:07;17.05;;;7.25;;
40907;SDS011;51055;59.436;24.778;2022-08-21T00:46:38;21.38;;;8.02;;
40907;SDS011;51055;59.436;24.778;2022-08-21T00:49:07;20.20;;;7.65;;
40907;SDS011;51055;59.436;24.778;2022-08-21T00:51:38;15.35;;;6.88;;
40907;SDS011;51055;59.436;24.778;2022-08-21T00:54:10;14.95;;;6.82;;
40907;SDS011;51055;59.436;24.778;2022-08-21T00:56:49;17.20;;;7.75;;
40907;SDS011;51055;59.436;24.778;2022-08-21T00:59:21;19.83;;;7.20;;
40907;SDS011;51055;59.436;24.778;2022-08-21T01:01:51;18.00;;;8.18;;
40907;SDS011;51055;59.436;24.778;2022-08-21T01:04:19;18.33;;;7.85;;
40907;SDS011;51055;59.436;24.778;2022-08-21T01:06:48;16.42;;;7.07;;
40907;SDS011;51055;59.436;24.778;2022-08-21T01:09:15;13.40;;;7.30;;
40907;SDS011;51055;59.436;24.778;2022-08-21T01:11:43;13.55;;;7.20;;
40907;SDS011;51055;59.436;24.778;2022-08-21T01:14:11;22.17;;;7.47;;
40907;SDS011;51055;59.436;24.778;2022-08-21T01:16:42;19.27;;;7.70;;
40907;SDS011;51055;59.436;24.778;2022-08-21T01:19:13;15.85;;;7.15;;
40907;SDS011;51055;59.436;24.778;2022-08-21T01:21:44;17.10;;;7.63;;
40907;SDS011;51055;59.436;24.778;2022-08-21T01:24:12;15.77;;;6.93;;
40907;SDS011;51055;59.436;24.778;2022-08-21T01:26:40;14.93;;;7.13;;
40907;SDS011;51055;59.436;24.778;2022-08-21T01:32:15;14.98;;;6.32;;
40907;SDS011;51055;59.436;24.778;2022-08-21T01:34:45;12.13;;;6.30;;
40907;SDS011;51055;59.436;24.778;2022-08-21T01:37:14;13.50;;;5.72;;
40907;SDS011;51055;59.436;24.778;2022-08-21T01:39:43;16.40;;;5.82;;
40907;SDS011;51055;59.436;24.778;2022-08-21T01:42:12;12.27;;;5.75;;
40907;SDS011;51055;59.436;24.778;2022-08-21T01:44:40;12.90;;;5.43;;
40907;SDS011;51055;59.436;24.778;2022-08-21T01:47:10;12.88;;;5.25;;
40907;SDS011;51055;59.436;24.778;2022-08-21T01:49:39;15.88;;;5.10;;
40907;SDS011;51055;59.436;24.778;2022-08-21T01:52:07;11.02;;;4.55;;
40907;SDS011;51055;59.436;24.778;2022-08-21T01:54:36;10.50;;;4.68;;
40907;SDS011;51055;59.436;24.778;2022-08-21T01:57:05;10.75;;;4.78;;
40907;SDS011;51055;59.436;24.778;2022-08-21T01:59:33;13.13;;;4.68;;
40907;SDS011;51055;59.436;24.778;2022-08-21T02:02:01;10.30;;;4.63;;
40907;SDS011;51055;59.436;24.778;2022-08-21T02:04:30;15.85;;;4.55;;
40907;SDS011;51055;59.436;24.778;2022-08-21T02:06:59;11.32;;;4.60;;
40907;SDS011;51055;59.436;24.778;2022-08-21T02:09:33;12.05;;;4.47;;
40907;SDS011;51055;59.436;24.778;2022-08-21T02:12:01;12.00;;;4.63;;
40907;SDS011;51055;59.436;24.778;2022-08-21T02:14:29;12.27;;;4.67;;
40907;SDS011;51055;59.436;24.778;2022-08-21T02:16:59;9.65;;;4.13;;
40907;SDS011;51055;59.436;24.778;2022-08-21T02:19:36;9.82;;;4.30;;
40907;SDS011;51055;59.436;24.778;2022-08-21T02:22:08;12.95;;;4.40;;
40907;SDS011;51055;59.436;24.778;2022-08-21T02:24:37;6.78;;;3.53;;
40907;SDS011;51055;59.436;24.778;2022-08-21T02:27:22;9.95;;;4.20;;
40907;SDS011;51055;59.436;24.778;2022-08-21T02:29:56;11.27;;;4.05;;
40907;SDS011;51055;59.436;24.778;2022-08-21T02:32:25;8.73;;;3.75;;
40907;SDS011;51055;59.436;24.778;2022-08-21T02:34:53;13.43;;;5.15;;
40907;SDS011;51055;59.436;24.778;2022-08-21T02:37:21;7.93;;;4.13;;
40907;SDS011;51055;59.436;24.778;2022-08-21T02:39:50;8.63;;;3.70;;
40907;SDS011;51055;59.436;24.778;2022-08-21T02:42:18;15.17;;;4.50;;
40907;SDS011;51055;59.436;24.778;2022-08-21T02:44:45;9.38;;;4.18;;
40907;SDS011;51055;59.436;24.778;2022-08-21T02:47:14;11.80;;;4.43;;
40907;SDS011;51055;59.436;24.778;2022-08-21T02:49:41;15.02;;;4.75;;
40907;SDS011;51055;59.436;24.778;2022-08-21T02:52:09;11.70;;;4.47;;
40907;SDS011;51055;59.436;24.778;2022-08-21T02:54:39;13.85;;;5.03;;
40907;SDS011;51055;59.436;24.778;2022-08-21T02:57:06;8.65;;;4.32;;
40907;SDS011;51055;59.436;24.778;2022-08-21T02:59:35;16.38;;;5.05;;
40907;SDS011;51055;59.436;24.778;2022-08-21T03:02:03;12.57;;;4.53;;
40907;SDS011;51055;59.436;24.778;2022-08-21T03:04:30;7.60;;;4.22;;
40907;SDS011;51055;59.436;24.778;2022-08-21T03:06:59;11.30;;;4.40;;
40907;SDS011;51055;59.436;24.778;2022-08-21T03:09:27;12.05;;;4.40;;
40907;SDS011;51055;59.436;24.778;2022-08-21T03:11:54;12.90;;;4.90;;
40907;SDS011;51055;59.436;24.778;2022-08-21T03:14:22;10.50;;;4.90;;
40907;SDS011;51055;59.436;24.778;2022-08-21T03:16:50;11.95;;;4.30;;
40907;SDS011;51055;59.436;24.778;2022-08-21T03:19:17;14.82;;;4.85;;
40907;SDS011;51055;59.436;24.778;2022-08-21T03:21:45;9.23;;;4.45;;
40907;SDS011;51055;59.436;24.778;2022-08-21T03:24:13;9.73;;;4.38;;
40907;SDS011;51055;59.436;24.778;2022-08-21T03:26:44;11.43;;;4.25;;
40907;SDS011;51055;59.436;24.778;2022-08-21T03:29:12;11.40;;;4.90;;
40907;SDS011;51055;59.436;24.778;2022-08-21T03:31:40;10.65;;;4.38;;
40907;SDS011;51055;59.436;24.778;2022-08-21T03:34:07;12.45;;;4.28;;
40907;SDS011;51055;59.436;24.778;2022-08-21T03:36:35;10.05;;;3.92;;
40907;SDS011;51055;59.436;24.778;2022-08-21T03:39:03;9.07;;;4.43;;
40907;SDS011;51055;59.436;24.778;2022-08-21T03:41:30;10.68;;;4.50;;
40907;SDS011;51055;59.436;24.778;2022-08-21T03:43:58;13.27;;;4.50;;
40907;SDS011;51055;59.436;24.778;2022-08-21T03:46:26;13.70;;;4.40;;
40907;SDS011;51055;59.436;24.778;2022-08-21T03:48:54;9.00;;;4.18;;
40907;SDS011;51055;59.436;24.778;2022-08-21T03:53:50;16.75;;;4.60;;
40907;SDS011;51055;59.436;24.778;2022-08-21T03:56:18;9.77;;;4.47;;
40907;SDS011;51055;59.436;24.778;2022-08-21T03:58:46;10.55;;;4.07;;
40907;SDS011;51055;59.436;24.778;2022-08-21T04:01:14;10.38;;;4.55;;
40907;SDS011;51055;59.436;24.778;2022-08-21T04:03:41;9.60;;;4.13;;
40907;SDS011;51055;59.436;24.778;2022-08-21T04:06:09;8.32;;;4.10;;
40907;SDS011;51055;59.436;24.778;2022-08-21T04:08:36;13.65;;;4.43;;
40907;SDS011;51055;59.436;24.778;2022-08-21T04:11:04;13.60;;;4.50;;
40907;SDS011;51055;59.436;24.778;2022-08-21T04:13:32;13.40;;;4.00;;
40907;SDS011;51055;59.436;24.778;2022-08-21T04:16:10;17.75;;;4.60;;
40907;SDS011;51055;59.436;24.778;2022-08-21T04:18:39;9.23;;;4.15;;
40907;SDS011;51055;59.436;24.778;2022-08-21T04:21:07;11.38;;;4.70;;
40907;SDS011;51055;59.436;24.778;2022-08-21T04:23:39;9.73;;;3.88;;
40907;SDS011;51055;59.436;24.778;2022-08-21T04:26:07;7.63;;;4.13;;
40907;SDS011;51055;59.436;24.778;2022-08-21T04:28:35;11.73;;;5.10;;
40907;SDS011;51055;59.436;24.778;2022-08-21T04:31:03;12.27;;;4.23;;
40907;SDS011;51055;59.436;24.778;2022-08-21T04:33:31;11.17;;;4.80;;
40907;SDS011;51055;59.436;24.778;2022-08-21T04:35:59;9.50;;;4.55;;
40907;SDS011;51055;59.436;24.778;2022-08-21T04:38:26;14.40;;;4.40;;
40907;SDS011;51055;59.436;24.778;2022-08-21T04:41:03;11.55;;;4.72;;
40907;SDS011;51055;59.436;24.778;2022-08-21T04:43:32;15.00;;;4.43;;
40907;SDS011;51055;59.436;24.778;2022-08-21T04:46:00;12.75;;;4.60;;
40907;SDS011;51055;59.436;24.778;2022-08-21T04:48:28;10.70;;;4.27;;
40907;SDS011;51055;59.436;24.778;2022-08-21T04:50:58;11.15;;;4.47;;
40907;SDS011;51055;59.436;24.778;2022-08-21T04:53:41;14.63;;;4.30;;
40907;SDS011;51055;59.436;24.778;2022-08-21T04:56:14;15.98;;;5.15;;
40907;SDS011;51055;59.436;24.778;2022-08-21T04:58:47;11.00;;;4.28;;
40907;SDS011;51055;59.436;24.778;2022-08-21T05:01:19;12.73;;;4.43;;
40907;SDS011;51055;59.436;24.778;2022-08-21T05:03:49;10.07;;;3.78;;
40907;SDS011;51055;59.436;24.778;2022-08-21T05:06:21;14.32;;;4.97;;
40907;SDS011;51055;59.436;24.778;2022-08-21T05:08:51;11.85;;;4.00;;
40907;SDS011;51055;59.436;24.778;2022-08-21T05:11:29;16.63;;;4.38;;
40907;SDS011;51055;59.436;24.778;2022-08-21T05:13:58;15.38;;;4.70;;
40907;SDS011;51055;59.436;24.778;2022-08-21T05:16:26;14.48;;;4.43;;
40907;SDS011;51055;59.436;24.778;2022-08-21T05:19:07;14.60;;;4.67;;
40907;SDS011;51055;59.436;24.778;2022-08-21T05:21:35;20.23;;;4.57;;
40907;SDS011;51055;59.436;24.778;2022-08-21T05:24:05;13.45;;;4.32;;
40907;SDS011;51055;59.436;24.778;2022-08-21T05:26:33;14.35;;;4.32;;
40907;SDS011;51055;59.436;24.778;2022-08-21T05:29:13;8.88;;;4.05;;
40907;SDS011;51055;59.436;24.778;2022-08-21T05:31:44;12.75;;;4.35;;
40907;SDS011;51055;59.436;24.778;2022-08-21T05:36:45;12.98;;;4.32;;
40907;SDS011;51055;59.436;24.778;2022-08-21T05:39:13;11.23;;;3.97;;
40907;SDS011;51055;59.436;24.778;2022-08-21T05:41:41;10.23;;;4.10;;
40907;SDS011;51055;59.436;24.778;2022-08-21T05:44:09;20.13;;;4.63;;
40907;SDS011;51055;59.436;24.778;2022-08-21T05:46:37;19.30;;;4.53;;
40907;SDS011;51055;59.436;24.778;2022-08-21T05:49:05;15.60;;;3.95;;
40907;SDS011;51055;59.436;24.778;2022-08-21T05:51:33;19.45;;;4.35;;
40907;SDS011;51055;59.436;24.778;2022-08-21T05:54:00;14.73;;;4.80;;
40907;SDS011;51055;59.436;24.778;2022-08-21T05:56:32;16.27;;;4.45;;
40907;SDS011;51055;59.436;24.778;2022-08-21T05:59:00;11.77;;;4.43;;
40907;SDS011;51055;59.436;24.778;2022-08-21T06:01:28;17.00;;;4.23;;
40907;SDS011;51055;59.436;24.778;2022-08-21T06:03:57;17.27;;;4.03;;
40907;SDS011;51055;59.436;24.778;2022-08-21T06:06:27;12.93;;;3.92;;
40907;SDS011;51055;59.436;24.778;2022-08-21T06:08:55;14.82;;;4.95;;
40907;SDS011;51055;59.436;24.778;2022-08-21T06:11:22;15.65;;;4.50;;
40907;SDS011;51055;59.436;24.778;2022-08-21T06:13:55;16.10;;;3.90;;
40907;SDS011;51055;59.436;24.778;2022-08-21T06:16:23;16.38;;;4.63;;
40907;SDS011;51055;59.436;24.778;2022-08-21T06:18:51;20.23;;;5.15;;
40907;SDS011;51055;59.436;24.778;2022-08-21T06:21:19;14.63;;;4.20;;
40907;SDS011;51055;59.436;24.778;2022-08-21T06:23:47;14.93;;;4.47;;
40907;SDS011;51055;59.436;24.778;2022-08-21T06:26:15;18.13;;;4.93;;
40907;SDS011;51055;59.436;24.778;2022-08-21T06:28:42;15.90;;;4.23;;
40907;SDS011;51055;59.436;24.778;2022-08-21T06:31:11;15.60;;;4.10;;
40907;SDS011;51055;59.436;24.778;2022-08-21T06:33:44;14.32;;;4.90;;
40907;SDS011;51055;59.436;24.778;2022-08-21T06:36:13;16.63;;;4.28;;
40907;SDS011;51055;59.436;24.778;2022-08-21T06:38:41;12.75;;;4.78;;
40907;SDS011;51055;59.436;24.778;2022-08-21T06:41:18;14.75;;;4.60;;
40907;SDS011;51055;59.436;24.778;2022-08-21T06:43:52;16.20;;;4.10;;
40907;SDS011;51055;59.436;24.778;2022-08-21T06:46:21;11.65;;;3.92;;
40907;SDS011;51055;59.436;24.778;2022-08-21T06:48:50;17.85;;;4.13;;
40907;SDS011;51055;59.436;24.778;2022-08-21T06:51:17;14.82;;;4.25;;
40907;SDS011;51055;59.436;24.778;2022-08-21T06:53:46;15.93;;;4.45;;
40907;SDS011;51055;59.436;24.778;2022-08-21T06:56:13;17.52;;;4.60;;
40907;SDS011;51055;59.436;24.778;2022-08-21T06:58:41;15.90;;;4.75;;
40907;SDS011;51055;59.436;24.778;2022-08-21T07:01:09;14.27;;;4.43;;
40907;SDS011;51055;59.436;24.778;2022-08-21T07:03:40;17.83;;;5.00;;
40907;SDS011;51055;59.436;24.778;2022-08-21T07:06:09;16.30;;;4.22;;
40907;SDS011;51055;59.436;24.778;2022-08-21T07:11:19;15.82;;;5.03;;
40907;SDS011;51055;59.436;24.778;2022-08-21T07:13:51;17.52;;;4.15;;
40907;SDS011;51055;59.436;24.778;2022-08-21T07:16:20;13.90;;;4.43;;
40907;SDS011;51055;59.436;24.778;2022-08-21T07:18:48;16.17;;;4.45;;
40907;SDS011;51055;59.436;24.778;2022-08-21T07:21:16;19.17;;;4.13;;
40907;SDS011;51055;59.436;24.778;2022-08-21T07:23:46;16.05;;;4.45;;
40907;SDS011;51055;59.436;24.778;2022-08-21T07:26:16;15.35;;;4.28;;
40907;SDS011;51055;59.436;24.778;2022-08-21T07:28:47;16.15;;;4.40;;
40907;SDS011;51055;59.436;24.778;2022-08-21T07:31:16;12.05;;;3.95;;
40907;SDS011;51055;59.436;24.778;2022-08-21T07:33:46;16.63;;;4.63;;
40907;SDS011;51055;59.436;24.778;2022-08-21T07:36:14;18.08;;;4.32;;
40907;SDS011;51055;59.436;24.778;2022-08-21T07:38:42;17.05;;;4.10;;
40907;SDS011;51055;59.436;24.778;2022-08-21T07:41:13;15.65;;;4.60;;
40907;SDS011;51055;59.436;24.778;2022-08-21T07:43:45;22.38;;;4.20;;
40907;SDS011;51055;59.436;24.778;2022-08-21T07:46:13;14.07;;;4.63;;
40907;SDS011;51055;59.436;24.778;2022-08-21T07:48:41;20.10;;;4.80;;
40907;SDS011;51055;59.436;24.778;2022-08-21T07:51:11;21.77;;;4.20;;
40907;SDS011;51055;59.436;24.778;2022-08-21T07:53:41;20.17;;;4.03;;
40907;SDS011;51055;59.436;24.778;2022-08-21T07:58:38;20.52;;;4.90;;
40907;SDS011;51055;59.436;24.778;2022-08-21T08:01:06;15.50;;;4.20;;
40907;SDS011;51055;59.436;24.778;2022-08-21T08:03:34;18.27;;;4.07;;
40907;SDS011;51055;59.436;24.778;2022-08-21T08:06:02;21.95;;;4.30;;
40907;SDS011;51055;59.436;24.778;2022-08-21T08:08:31;15.85;;;3.95;;
40907;SDS011;51055;59.436;24.778;2022-08-21T08:10:59;17.63;;;4.07;;
40907;SDS011;51055;59.436;24.778;2022-08-21T08:13:28;19.75;;;4.32;;
40907;SDS011;51055;59.436;24.778;2022-08-21T08:15:56;18.48;;;4.30;;
40907;SDS011;51055;59.436;24.778;2022-08-21T08:18:23;15.60;;;4.80;;
40907;SDS011;51055;59.436;24.778;2022-08-21T08:20:51;16.75;;;4.22;;
40907;SDS011;51055;59.436;24.778;2022-08-21T08:23:19;13.52;;;4.47;;
40907;SDS011;51055;59.436;24.778;2022-08-21T08:25:47;15.48;;;4.28;;
40907;SDS011;51055;59.436;24.778;2022-08-21T08:28:15;15.00;;;3.90;;
40907;SDS011;51055;59.436;24.778;2022-08-21T08:30:44;14.00;;;4.00;;
40907;SDS011;51055;59.436;24.778;2022-08-21T08:33:13;15.77;;;4.45;;
40907;SDS011;51055;59.436;24.778;2022-08-21T08:38:11;14.95;;;4.28;;
40907;SDS011;51055;59.436;24.778;2022-08-21T08:43:28;18.85;;;5.03;;
40907;SDS011;51055;59.436;24.778;2022-08-21T08:45:57;16.55;;;4.10;;
40907;SDS011;51055;59.436;24.778;2022-08-21T08:48:44;17.52;;;4.28;;
40907;SDS011;51055;59.436;24.778;2022-08-21T08:51:39;18.63;;;4.57;;
40907;SDS011;51055;59.436;24.778;2022-08-21T08:54:15;13.70;;;4.30;;
40907;SDS011;51055;59.436;24.778;2022-08-21T08:56:48;20.00;;;4.63;;
40907;SDS011;51055;59.436;24.778;2022-08-21T08:59:20;19.67;;;4.88;;
40907;SDS011;51055;59.436;24.778;2022-08-21T09:01:52;18.30;;;4.30;;
40907;SDS011;51055;59.436;24.778;2022-08-21T09:04:22;16.13;;;4.50;;
40907;SDS011;51055;59.436;24.778;2022-08-21T09:28:39;16.83;;;4.72;;
40907;SDS011;51055;59.436;24.778;2022-08-21T09:31:11;15.70;;;4.82;;
40907;SDS011;51055;59.436;24.778;2022-08-21T09:36:57;21.95;;;4.55;;
40907;SDS011;51055;59.436;24.778;2022-08-21T09:42:09;16.08;;;4.20;;
40907;SDS011;51055;59.436;24.778;2022-08-21T09:44:38;14.45;;;4.38;;
40907;SDS011;51055;59.436;24.778;2022-08-21T09:47:11;18.48;;;4.72;;
40907;SDS011;51055;59.436;24.778;2022-08-21T09:49:42;23.70;;;3.92;;
40907;SDS011;51055;59.436;24.778;2022-08-21T09:52:17;16.33;;;4.07;;
40907;SDS011;51055;59.436;24.778;2022-08-21T09:54:50;16.50;;;4.47;;
40907;SDS011;51055;59.436;24.778;2022-08-21T09:57:24;19.88;;;4.43;;
40907;SDS011;51055;59.436;24.778;2022-08-21T10:00:31;13.43;;;4.60;;
40907;SDS011;51055;59.436;24.778;2022-08-21T10:03:08;21.08;;;5.00;;
40907;SDS011;51055;59.436;24.778;2022-08-21T10:05:49;13.20;;;3.67;;
40907;SDS011;51055;59.436;24.778;2022-08-21T10:08:27;20.27;;;4.57;;
40907;SDS011;51055;59.436;24.778;2022-08-21T10:10:57;21.10;;;4.78;;
40907;SDS011;51055;59.436;24.778;2022-08-21T10:19:22;14.68;;;4.10;;
40907;SDS011;51055;59.436;24.778;2022-08-21T10:28:13;21.20;;;4.40;;
40907;SDS011;51055;59.436;24.778;2022-08-21T10:31:00;14.25;;;4.28;;
40907;SDS011;51055;59.436;24.778;2022-08-21T10:33:46;16.95;;;4.45;;
40907;SDS011;51055;59.436;24.778;2022-08-21T10:36:16;20.45;;;4.95;;
40907;SDS011;51055;59.436;24.778;2022-08-21T10:42:06;17.98;;;4.22;;
40907;SDS011;51055;59.436;24.778;2022-08-21T10:52:36;19.90;;;4.32;;
40907;SDS011;51055;59.436;24.778;2022-08-21T10:55:22;21.65;;;4.60;;
40907;SDS011;51055;59.436;24.778;2022-08-21T10:57:55;18.80;;;4.70;;
40907;SDS011;51055;59.436;24.778;2022-08-21T11:00:39;15.07;;;4.55;;
40907;SDS011;51055;59.436;24.778;2022-08-21T11:03:31;20.92;;;4.60;;
40907;SDS011;51055;59.436;24.778;2022-08-21T11:08:39;20.60;;;4.72;;
40907;SDS011;51055;59.436;24.778;2022-08-21T11:11:15;20.67;;;4.10;;
40907;SDS011;51055;59.436;24.778;2022-08-21T11:13:51;12.15;;;3.50;;
40907;SDS011;51055;59.436;24.778;2022-08-21T11:16:25;17.27;;;4.22;;
40907;SDS011;51055;59.436;24.778;2022-08-21T11:19:02;22.48;;;4.95;;
40907;SDS011;51055;59.436;24.778;2022-08-21T11:21:54;16.20;;;4.20;;
40907;SDS011;51055;59.436;24.778;2022-08-21T11:30:13;24.98;;;4.50;;
40907;SDS011;51055;59.436;24.778;2022-08-21T11:43:31;20.15;;;3.97;;
40907;SDS011;51055;59.436;24.778;2022-08-21T11:49:02;13.27;;;3.45;;
40907;SDS011;51055;59.436;24.778;2022-08-21T11:57:05;20.42;;;3.95;;
40907;SDS011;51055;59.436;24.778;2022-08-21T11:59:54;19.48;;;4.50;;
40907;SDS011;51055;59.436;24.778;2022-08-21T12:02:28;18.58;;;3.88;;
40907;SDS011;51055;59.436;24.778;2022-08-21T12:05:00;14.02;;;4.30;;
40907;SDS011;51055;59.436;24.778;2022-08-21T12:07:39;23.25;;;4.30;;
40907;SDS011;51055;59.436;24.778;2022-08-21T12:10:18;21.17;;;4.38;;
40907;SDS011;51055;59.436;24.778;2022-08-21T12:13:05;22.80;;;4.50;;
40907;SDS011;51055;59.436;24.778;2022-08-21T12:15:35;19.38;;;4.25;;
40907;SDS011;51055;59.436;24.778;2022-08-21T12:18:05;22.70;;;4.83;;
40907;SDS011;51055;59.436;24.778;2022-08-21T12:23:28;19.73;;;4.13;;
40907;SDS011;51055;59.436;24.778;2022-08-21T12:31:58;18.75;;;4.85;;
40907;SDS011;51055;59.436;24.778;2022-08-21T12:39:54;15.57;;;4.00;;
40907;SDS011;51055;59.436;24.778;2022-08-21T12:42:46;13.82;;;3.83;;
40907;SDS011;51055;59.436;24.778;2022-08-21T12:48:04;20.10;;;4.53;;
40907;SDS011;51055;59.436;24.778;2022-08-21T12:50:38;19.27;;;4.43;;
40907;SDS011;51055;59.436;24.778;2022-08-21T12:53:17;21.50;;;4.22;;
40907;SDS011;51055;59.436;24.778;2022-08-21T12:55:51;21.63;;;4.40;;
40907;SDS011;51055;59.436;24.778;2022-08-21T12:58:22;18.92;;;4.57;;
40907;SDS011;51055;59.436;24.778;2022-08-21T13:00:53;20.30;;;4.57;;
40907;SDS011;51055;59.436;24.778;2022-08-21T13:03:24;22.58;;;4.03;;
40907;SDS011;51055;59.436;24.778;2022-08-21T13:08:21;21.13;;;4.65;;
40907;SDS011;51055;59.436;24.778;2022-08-21T13:11:02;17.98;;;4.50;;
40907;SDS011;51055;59.436;24.778;2022-08-21T13:13:41;18.63;;;4.47;;
40907;SDS011;51055;59.436;24.778;2022-08-21T13:16:23;18.85;;;4.57;;
40907;SDS011;51055;59.436;24.778;2022-08-21T13:19:02;19.67;;;4.57;;
40907;SDS011;51055;59.436;24.778;2022-08-21T13:21:34;21.05;;;4.50;;
40907;SDS011;51055;59.436;24.778;2022-08-21T13:27:18;17.70;;;4.47;;
40907;SDS011;51055;59.436;24.778;2022-08-21T13:29:59;17.15;;;4.45;;
40907;SDS011;51055;59.436;24.778;2022-08-21T13:32:41;21.10;;;5.30;;
40907;SDS011;51055;59.436;24.778;2022-08-21T13:35:13;22.30;;;4.13;;
40907;SDS011;51055;59.436;24.778;2022-08-21T13:37:49;18.63;;;4.60;;
40907;SDS011;51055;59.436;24.778;2022-08-21T13:40:20;23.17;;;4.28;;
40907;SDS011;51055;59.436;24.778;2022-08-21T13:42:56;19.95;;;4.75;;
40907;SDS011;51055;59.436;24.778;2022-08-21T13:45:32;19.83;;;4.40;;
40907;SDS011;51055;59.436;24.778;2022-08-21T13:48:00;21.15;;;4.60;;
40907;SDS011;51055;59.436;24.778;2022-08-21T13:50:33;16.13;;;4.05;;
40907;SDS011;51055;59.436;24.778;2022-08-21T13:53:05;13.35;;;3.85;;
40907;SDS011;51055;59.436;24.778;2022-08-21T13:55:46;21.20;;;4.35;;
40907;SDS011;51055;59.436;24.778;2022-08-21T13:58:23;12.85;;;4.13;;
40907;SDS011;51055;59.436;24.778;2022-08-21T14:00:59;17.17;;;4.13;;
40907;SDS011;51055;59.436;24.778;2022-08-21T14:06:13;19.98;;;4.28;;
40907;SDS011;51055;59.436;24.778;2022-08-21T14:08:49;20.70;;;4.80;;
40907;SDS011;51055;59.436;24.778;2022-08-21T14:11:20;14.93;;;3.75;;
40907;SDS011;51055;59.436;24.778;2022-08-21T14:13:59;14.35;;;3.60;;
40907;SDS011;51055;59.436;24.778;2022-08-21T14:16:52;22.08;;;4.43;;
40907;SDS011;51055;59.436;24.778;2022-08-21T14:19:36;18.02;;;4.30;;
40907;SDS011;51055;59.436;24.778;2022-08-21T14:25:27;16.52;;;4.65;;
40907;SDS011;51055;59.436;24.778;2022-08-21T14:28:01;16.92;;;4.45;;
40907;SDS011;51055;59.436;24.778;2022-08-21T14:30:45;18.45;;;4.18;;
40907;SDS011;51055;59.436;24.778;2022-08-21T14:33:38;15.15;;;3.70;;
40907;SDS011;51055;59.436;24.778;2022-08-21T14:36:05;19.10;;;4.65;;
40907;SDS011;51055;59.436;24.778;2022-08-21T14:38:35;19.75;;;4.45;;
40907;SDS011;51055;59.436;24.778;2022-08-21T14:41:24;15.45;;;3.88;;
40907;SDS011;51055;59.436;24.778;2022-08-21T14:43:55;21.23;;;4.28;;
40907;SDS011;51055;59.436;24.778;2022-08-21T14:46:35;12.98;;;4.18;;
40907;SDS011;51055;59.436;24.778;2022-08-21T14:49:22;16.50;;;4.03;;
40907;SDS011;51055;59.436;24.778;2022-08-21T14:51:54;18.52;;;4.30;;
40907;SDS011;51055;59.436;24.778;2022-08-21T14:54:26;13.45;;;4.00;;
40907;SDS011;51055;59.436;24.778;2022-08-21T14:56:59;17.63;;;4.07;;
40907;SDS011;51055;59.436;24.778;2022-08-21T14:59:30;17.10;;;4.35;;
40907;SDS011;51055;59.436;24.778;2022-08-21T15:02:00;19.00;;;4.32;;
40907;SDS011;51055;59.436;24.778;2022-08-21T15:04:29;17.13;;;3.70;;
40907;SDS011;51055;59.436;24.778;2022-08-21T15:06:57;13.02;;;3.75;;
40907;SDS011;51055;59.436;24.778;2022-08-21T15:09:24;15.95;;;4.03;;
40907;SDS011;51055;59.436;24.778;2022-08-21T15:11:53;19.38;;;4.20;;
40907;SDS011;51055;59.436;24.778;2022-08-21T15:14:26;20.23;;;4.90;;
40907;SDS011;51055;59.436;24.778;2022-08-21T15:16:55;17.77;;;4.63;;
40907;SDS011;51055;59.436;24.778;2022-08-21T15:19:24;23.73;;;4.10;;
40907;SDS011;51055;59.436;24.778;2022-08-21T15:21:52;18.15;;;4.15;;
40907;SDS011;51055;59.436;24.778;2022-08-21T15:24:20;15.50;;;4.15;;
40907;SDS011;51055;59.436;24.778;2022-08-21T15:26:47;15.63;;;4.45;;
40907;SDS011;51055;59.436;24.778;2022-08-21T15:29:16;16.88;;;4.35;;
40907;SDS011;51055;59.436;24.778;2022-08-21T15:31:53;16.38;;;4.35;;
40907;SDS011;51055;59.436;24.778;2022-08-21T15:34:23;18.70;;;3.85;;
40907;SDS011;51055;59.436;24.778;2022-08-21T15:36:54;20.10;;;4.03;;
40907;SDS011;51055;59.436;24.778;2022-08-21T15:39:24;15.23;;;4.10;;
40907;SDS011;51055;59.436;24.778;2022-08-21T15:41:58;20.05;;;4.53;;
40907;SDS011;51055;59.436;24.778;2022-08-21T15:44:38;22.33;;;4.40;;
40907;SDS011;51055;59.436;24.778;2022-08-21T15:47:17;14.02;;;4.00;;
40907;SDS011;51055;59.436;24.778;2022-08-21T15:49:48;13.65;;;4.32;;
40907;SDS011;51055;59.436;24.778;2022-08-21T15:52:16;16.83;;;4.10;;
40907;SDS011;51055;59.436;24.778;2022-08-21T15:54:46;14.23;;;3.92;;
40907;SDS011;51055;59.436;24.778;2022-08-21T15:57:16;16.27;;;3.97;;
40907;SDS011;51055;59.436;24.778;2022-08-21T15:59:49;15.65;;;4.38;;
40907;SDS011;51055;59.436;24.778;2022-08-21T16:02:23;18.85;;;4.82;;
40907;SDS011;51055;59.436;24.778;2022-08-21T16:04:53;21.23;;;4.65;;
40907;SDS011;51055;59.436;24.778;2022-08-21T16:07:21;18.50;;;4.63;;
40907;SDS011;51055;59.436;24.778;2022-08-21T16:09:49;19.40;;;4.45;;
40907;SDS011;51055;59.436;24.778;2022-08-21T16:12:27;17.73;;;4.60;;
40907;SDS011;51055;59.436;24.778;2022-08-21T16:15:01;24.58;;;4.70;;
40907;SDS011;51055;59.436;24.778;2022-08-21T16:17:32;22.08;;;4.65;;
40907;SDS011;51055;59.436;24.778;2022-08-21T16:20:06;23.48;;;4.50;;
40907;SDS011;51055;59.436;24.778;2022-08-21T16:22:36;19.13;;;4.88;;
40907;SDS011;51055;59.436;24.778;2022-08-21T16:25:11;17.55;;;4.55;;
40907;SDS011;51055;59.436;24.778;2022-08-21T16:27:41;17.10;;;4.53;;
40907;SDS011;51055;59.436;24.778;2022-08-21T16:30:10;14.68;;;5.10;;
40907;SDS011;51055;59.436;24.778;2022-08-21T16:35:06;19.52;;;4.93;;
40907;SDS011;51055;59.436;24.778;2022-08-21T16:37:37;18.08;;;4.50;;
40907;SDS011;51055;59.436;24.778;2022-08-21T16:40:04;18.25;;;4.95;;
40907;SDS011;51055;59.436;24.778;2022-08-21T16:42:33;17.85;;;4.40;;
40907;SDS011;51055;59.436;24.778;2022-08-21T16:45:02;17.17;;;4.18;;
40907;SDS011;51055;59.436;24.778;2022-08-21T16:47:34;20.40;;;4.90;;
40907;SDS011;51055;59.436;24.778;2022-08-21T16:50:02;17.10;;;4.50;;
40907;SDS011;51055;59.436;24.778;2022-08-21T16:52:31;20.50;;;4.60;;
40907;SDS011;51055;59.436;24.778;2022-08-21T16:55:00;23.25;;;6.07;;
40907;SDS011;51055;59.436;24.778;2022-08-21T16:57:28;29.08;;;5.30;;